UADD

Taraz Airport

Taraz, Kazakhstan
TAF UADD 212300Z 2200/2209 22005G10MPS 3000 BR SCT010 BKN050 TEMPO 2200/2206 0500 FZFG VV002
Issued Valid From Valid To
Jan-21 @ 23:00 UTC
(an hour ago)
Jan-22 @ 00:00 UTC
(22 minutes ago)
Jan-22 @ 09:00 UTC
(in 9 hours)
Jan-22 @ 00:00 to Jan-22 @ 09:00
TAF UADD 212300Z 2200/2209 22005G10MPS 3000 BR SCT010 BKN050
Wind Visibility Clouds Conditions
220° at 10 knots
 Gusting to 19 knots
2,993 meters
  • Scattered at 1,000' AGL
  • Broken at 5,000' AGL
  • Mist
Temporary Jan-22 @ 00:00 to Jan-22 @ 06:00
TEMPO 2200/2206 0500 FZFG VV002
Visibility Clouds Conditions
499 meters
  • Vertical visibility at 200' AGL
  • Freezing
  • Fog
TAF UADD 212300Z 2200/2209 22005G10MPS 3000 BR SCT010 BKN050 TEMPO 2200/2206 0500 FZFG VV002
Issued Jan-21 @ 23:00 UTC
(an hour ago)
Valid From Jan-22 @ 00:00 UTC
(22 minutes ago)
Valid To Jan-22 @ 09:00 UTC
(in 9 hours)
Jan-22 @ 00:00 - Jan-22 @ 09:00
Wind Visibility
220° at 10 knots
 Gusting to 19 knots
2,993 meters
Clouds
  • Scattered at 1,000' AGL
  • Broken at 5,000' AGL
Conditions
  • Mist
Temporary Jan-22 @ 00:00 - Jan-22 @ 06:00
Clouds
  • Vertical visibility at 200' AGL
Conditions
  • Freezing
  • Fog